sensor_id;sensor_type;location;lat;lon;timestamp;P1;durP1;ratioP1;P2;durP2;ratioP2
29240;SDS011;16268;49.880;8.648;2022-09-20T00:03:35;9.45;;;2.35;;
29240;SDS011;16268;49.880;8.648;2022-09-20T00:06:02;11.13;;;2.15;;
29240;SDS011;16268;49.880;8.648;2022-09-20T00:08:30;7.10;;;1.95;;
29240;SDS011;16268;49.880;8.648;2022-09-20T00:10:59;7.60;;;1.98;;
29240;SDS011;16268;49.880;8.648;2022-09-20T00:13:30;7.53;;;2.15;;
29240;SDS011;16268;49.880;8.648;2022-09-20T00:15:57;4.78;;;1.60;;
29240;SDS011;16268;49.880;8.648;2022-09-20T00:18:24;4.78;;;1.98;;
29240;SDS011;16268;49.880;8.648;2022-09-20T00:20:50;6.20;;;1.80;;
29240;SDS011;16268;49.880;8.648;2022-09-20T00:23:16;5.93;;;1.80;;
29240;SDS011;16268;49.880;8.648;2022-09-20T00:25:42;7.07;;;1.92;;
29240;SDS011;16268;49.880;8.648;2022-09-20T00:28:08;8.82;;;1.92;;
29240;SDS011;16268;49.880;8.648;2022-09-20T00:30:34;7.18;;;1.88;;
29240;SDS011;16268;49.880;8.648;2022-09-20T00:33:01;5.07;;;1.70;;
29240;SDS011;16268;49.880;8.648;2022-09-20T00:35:27;7.25;;;1.88;;
29240;SDS011;16268;49.880;8.648;2022-09-20T00:37:53;4.57;;;1.77;;
29240;SDS011;16268;49.880;8.648;2022-09-20T00:40:20;6.97;;;1.90;;
29240;SDS011;16268;49.880;8.648;2022-09-20T00:42:48;12.20;;;3.28;;
29240;SDS011;16268;49.880;8.648;2022-09-20T00:45:27;7.72;;;2.47;;
29240;SDS011;16268;49.880;8.648;2022-09-20T00:48:14;6.28;;;2.33;;
29240;SDS011;16268;49.880;8.648;2022-09-20T00:51:01;6.50;;;2.00;;
29240;SDS011;16268;49.880;8.648;2022-09-20T00:53:38;6.10;;;2.00;;
29240;SDS011;16268;49.880;8.648;2022-09-20T00:56:12;8.38;;;2.00;;
29240;SDS011;16268;49.880;8.648;2022-09-20T00:58:43;8.63;;;2.13;;
29240;SDS011;16268;49.880;8.648;2022-09-20T01:01:14;9.85;;;2.10;;
29240;SDS011;16268;49.880;8.648;2022-09-20T01:03:40;8.43;;;2.30;;
29240;SDS011;16268;49.880;8.648;2022-09-20T01:06:07;8.18;;;2.28;;
29240;SDS011;16268;49.880;8.648;2022-09-20T01:08:35;7.80;;;2.33;;
29240;SDS011;16268;49.880;8.648;2022-09-20T01:11:02;5.20;;;1.77;;
29240;SDS011;16268;49.880;8.648;2022-09-20T01:13:28;9.60;;;2.40;;
29240;SDS011;16268;49.880;8.648;2022-09-20T01:15:53;8.43;;;2.35;;
29240;SDS011;16268;49.880;8.648;2022-09-20T01:18:22;8.43;;;2.50;;
29240;SDS011;16268;49.880;8.648;2022-09-20T01:20:49;5.85;;;2.22;;
29240;SDS011;16268;49.880;8.648;2022-09-20T01:23:34;8.15;;;2.40;;
29240;SDS011;16268;49.880;8.648;2022-09-20T01:28:32;8.60;;;2.60;;
29240;SDS011;16268;49.880;8.648;2022-09-20T01:42:31;9.40;;;2.50;;
29240;SDS011;16268;49.880;8.648;2022-09-20T01:47:51;11.25;;;2.85;;
29240;SDS011;16268;49.880;8.648;2022-09-20T02:09:55;11.65;;;3.40;;
29240;SDS011;16268;49.880;8.648;2022-09-20T02:15:27;11.23;;;3.55;;
29240;SDS011;16268;49.880;8.648;2022-09-20T02:26:21;11.52;;;3.88;;
29240;SDS011;16268;49.880;8.648;2022-09-20T02:31:51;10.82;;;3.25;;
29240;SDS011;16268;49.880;8.648;2022-09-20T02:34:43;13.23;;;4.00;;
29240;SDS011;16268;49.880;8.648;2022-09-20T02:40:33;11.13;;;3.65;;
29240;SDS011;16268;49.880;8.648;2022-09-20T02:43:03;9.02;;;3.38;;
29240;SDS011;16268;49.880;8.648;2022-09-20T02:45:46;10.93;;;3.33;;
29240;SDS011;16268;49.880;8.648;2022-09-20T02:48:47;15.93;;;4.00;;
29240;SDS011;16268;49.880;8.648;2022-09-20T03:02:21;10.60;;;2.95;;
29240;SDS011;16268;49.880;8.648;2022-09-20T03:05:01;8.48;;;3.00;;
29240;SDS011;16268;49.880;8.648;2022-09-20T03:10:50;8.60;;;3.28;;
29240;SDS011;16268;49.880;8.648;2022-09-20T03:19:05;8.05;;;3.50;;
29240;SDS011;16268;49.880;8.648;2022-09-20T03:31:07;10.18;;;3.42;;
29240;SDS011;16268;49.880;8.648;2022-09-20T03:36:23;11.98;;;3.92;;
29240;SDS011;16268;49.880;8.648;2022-09-20T03:39:21;10.85;;;3.80;;
29240;SDS011;16268;49.880;8.648;2022-09-20T03:42:01;9.40;;;3.72;;
29240;SDS011;16268;49.880;8.648;2022-09-20T03:44:44;9.95;;;4.13;;
29240;SDS011;16268;49.880;8.648;2022-09-20T03:58:46;11.40;;;4.85;;
29240;SDS011;16268;49.880;8.648;2022-09-20T04:04:02;14.30;;;4.63;;
29240;SDS011;16268;49.880;8.648;2022-09-20T04:06:50;10.43;;;4.15;;
29240;SDS011;16268;49.880;8.648;2022-09-20T04:23:35;11.43;;;5.10;;
29240;SDS011;16268;49.880;8.648;2022-09-20T04:26:07;12.18;;;5.85;;
29240;SDS011;16268;49.880;8.648;2022-09-20T04:28:41;14.35;;;6.22;;
29240;SDS011;16268;49.880;8.648;2022-09-20T04:31:58;17.55;;;6.93;;
29240;SDS011;16268;49.880;8.648;2022-09-20T04:33:57;15.13;;;7.43;;
29240;SDS011;16268;49.880;8.648;2022-09-20T04:36:55;20.60;;;8.30;;
29240;SDS011;16268;49.880;8.648;2022-09-20T04:59:39;13.02;;;7.00;;
29240;SDS011;16268;49.880;8.648;2022-09-20T05:11:05;15.25;;;6.93;;
29240;SDS011;16268;49.880;8.648;2022-09-20T05:14:59;18.60;;;7.57;;
29240;SDS011;16268;49.880;8.648;2022-09-20T05:25:41;15.25;;;7.88;;
29240;SDS011;16268;49.880;8.648;2022-09-20T05:30:51;13.98;;;8.02;;
29240;SDS011;16268;49.880;8.648;2022-09-20T05:33:36;12.15;;;7.18;;
29240;SDS011;16268;49.880;8.648;2022-09-20T05:42:08;14.73;;;7.15;;
29240;SDS011;16268;49.880;8.648;2022-09-20T05:44:56;15.35;;;7.03;;
29240;SDS011;16268;49.880;8.648;2022-09-20T05:47:51;14.35;;;6.43;;
29240;SDS011;16268;49.880;8.648;2022-09-20T05:50:28;15.70;;;6.60;;
29240;SDS011;16268;49.880;8.648;2022-09-20T05:52:58;15.65;;;6.35;;
29240;SDS011;16268;49.880;8.648;2022-09-20T05:58:46;16.73;;;7.00;;
29240;SDS011;16268;49.880;8.648;2022-09-20T06:01:31;14.73;;;7.20;;
29240;SDS011;16268;49.880;8.648;2022-09-20T06:06:44;12.77;;;6.25;;
29240;SDS011;16268;49.880;8.648;2022-09-20T06:09:44;10.88;;;5.38;;
29240;SDS011;16268;49.880;8.648;2022-09-20T06:15:26;10.75;;;5.13;;
29240;SDS011;16268;49.880;8.648;2022-09-20T06:18:16;11.50;;;5.15;;
29240;SDS011;16268;49.880;8.648;2022-09-20T06:21:03;9.10;;;4.95;;
29240;SDS011;16268;49.880;8.648;2022-09-20T06:23:39;10.52;;;4.60;;
29240;SDS011;16268;49.880;8.648;2022-09-20T06:26:06;16.95;;;5.90;;
29240;SDS011;16268;49.880;8.648;2022-09-20T06:28:49;13.48;;;5.05;;
29240;SDS011;16268;49.880;8.648;2022-09-20T06:31:19;11.27;;;4.80;;
29240;SDS011;16268;49.880;8.648;2022-09-20T06:33:59;10.60;;;4.95;;
29240;SDS011;16268;49.880;8.648;2022-09-20T06:36:30;13.10;;;4.70;;
29240;SDS011;16268;49.880;8.648;2022-09-20T06:42:06;12.80;;;4.30;;
29240;SDS011;16268;49.880;8.648;2022-09-20T06:44:34;11.82;;;4.22;;
29240;SDS011;16268;49.880;8.648;2022-09-20T06:47:00;10.30;;;4.00;;
29240;SDS011;16268;49.880;8.648;2022-09-20T06:49:25;10.65;;;3.83;;
29240;SDS011;16268;49.880;8.648;2022-09-20T06:51:53;10.05;;;3.80;;
29240;SDS011;16268;49.880;8.648;2022-09-20T06:54:20;8.98;;;3.47;;
29240;SDS011;16268;49.880;8.648;2022-09-20T06:56:47;13.60;;;3.50;;
29240;SDS011;16268;49.880;8.648;2022-09-20T06:59:15;9.75;;;3.65;;
29240;SDS011;16268;49.880;8.648;2022-09-20T07:01:40;11.48;;;3.97;;
29240;SDS011;16268;49.880;8.648;2022-09-20T07:04:07;11.82;;;3.60;;
29240;SDS011;16268;49.880;8.648;2022-09-20T07:06:35;11.07;;;4.57;;
29240;SDS011;16268;49.880;8.648;2022-09-20T07:09:01;10.23;;;3.53;;
29240;SDS011;16268;49.880;8.648;2022-09-20T07:11:27;9.25;;;3.65;;
29240;SDS011;16268;49.880;8.648;2022-09-20T07:13:54;13.20;;;3.40;;
29240;SDS011;16268;49.880;8.648;2022-09-20T07:16:22;10.32;;;3.03;;
29240;SDS011;16268;49.880;8.648;2022-09-20T07:18:48;19.23;;;11.27;;
29240;SDS011;16268;49.880;8.648;2022-09-20T07:21:16;7.40;;;3.33;;
29240;SDS011;16268;49.880;8.648;2022-09-20T07:23:42;7.50;;;3.08;;
29240;SDS011;16268;49.880;8.648;2022-09-20T07:26:16;10.68;;;3.55;;
29240;SDS011;16268;49.880;8.648;2022-09-20T07:28:46;8.38;;;2.92;;
29240;SDS011;16268;49.880;8.648;2022-09-20T07:31:13;10.52;;;2.95;;
29240;SDS011;16268;49.880;8.648;2022-09-20T07:33:39;7.88;;;3.17;;
29240;SDS011;16268;49.880;8.648;2022-09-20T07:36:04;10.00;;;2.80;;
29240;SDS011;16268;49.880;8.648;2022-09-20T07:38:30;12.00;;;3.30;;
29240;SDS011;16268;49.880;8.648;2022-09-20T07:40:56;11.85;;;3.25;;
29240;SDS011;16268;49.880;8.648;2022-09-20T07:43:25;9.18;;;2.90;;
29240;SDS011;16268;49.880;8.648;2022-09-20T07:45:51;9.30;;;2.65;;
29240;SDS011;16268;49.880;8.648;2022-09-20T07:48:19;8.75;;;2.83;;
29240;SDS011;16268;49.880;8.648;2022-09-20T07:50:50;9.98;;;2.75;;
29240;SDS011;16268;49.880;8.648;2022-09-20T07:53:24;7.68;;;3.05;;
29240;SDS011;16268;49.880;8.648;2022-09-20T07:56:03;9.40;;;3.25;;
29240;SDS011;16268;49.880;8.648;2022-09-20T07:58:32;8.10;;;2.65;;
29240;SDS011;16268;49.880;8.648;2022-09-20T08:01:00;7.25;;;2.90;;
29240;SDS011;16268;49.880;8.648;2022-09-20T08:03:28;11.93;;;3.17;;
29240;SDS011;16268;49.880;8.648;2022-09-20T08:05:58;8.40;;;2.90;;
29240;SDS011;16268;49.880;8.648;2022-09-20T08:08:35;6.72;;;2.88;;
29240;SDS011;16268;49.880;8.648;2022-09-20T08:11:09;7.55;;;3.42;;
29240;SDS011;16268;49.880;8.648;2022-09-20T08:18:33;11.82;;;3.53;;
29240;SDS011;16268;49.880;8.648;2022-09-20T08:21:03;9.35;;;3.35;;
29240;SDS011;16268;49.880;8.648;2022-09-20T08:23:39;9.68;;;3.60;;
29240;SDS011;16268;49.880;8.648;2022-09-20T08:26:08;10.70;;;3.72;;
29240;SDS011;16268;49.880;8.648;2022-09-20T08:28:38;7.50;;;3.35;;
29240;SDS011;16268;49.880;8.648;2022-09-20T08:31:12;8.32;;;3.85;;
29240;SDS011;16268;49.880;8.648;2022-09-20T08:33:40;10.63;;;3.40;;
29240;SDS011;16268;49.880;8.648;2022-09-20T08:36:07;11.05;;;3.90;;
29240;SDS011;16268;49.880;8.648;2022-09-20T08:38:35;11.30;;;4.15;;
29240;SDS011;16268;49.880;8.648;2022-09-20T08:41:20;8.98;;;3.63;;
29240;SDS011;16268;49.880;8.648;2022-09-20T08:44:01;9.43;;;3.33;;
29240;SDS011;16268;49.880;8.648;2022-09-20T08:46:50;10.07;;;3.97;;
29240;SDS011;16268;49.880;8.648;2022-09-20T08:49:37;10.00;;;3.03;;
29240;SDS011;16268;49.880;8.648;2022-09-20T08:52:06;9.17;;;3.13;;
29240;SDS011;16268;49.880;8.648;2022-09-20T08:54:43;7.45;;;3.20;;
29240;SDS011;16268;49.880;8.648;2022-09-20T08:57:10;10.00;;;3.50;;
29240;SDS011;16268;49.880;8.648;2022-09-20T08:59:40;8.70;;;3.67;;
29240;SDS011;16268;49.880;8.648;2022-09-20T09:02:11;10.13;;;3.70;;
29240;SDS011;16268;49.880;8.648;2022-09-20T09:04:40;9.82;;;4.00;;
29240;SDS011;16268;49.880;8.648;2022-09-20T09:07:08;8.63;;;3.70;;
29240;SDS011;16268;49.880;8.648;2022-09-20T09:09:37;9.80;;;3.78;;
29240;SDS011;16268;49.880;8.648;2022-09-20T09:12:05;6.65;;;3.38;;
29240;SDS011;16268;49.880;8.648;2022-09-20T09:14:58;12.07;;;3.78;;
29240;SDS011;16268;49.880;8.648;2022-09-20T09:17:28;8.32;;;3.33;;
29240;SDS011;16268;49.880;8.648;2022-09-20T09:19:55;11.75;;;3.78;;
29240;SDS011;16268;49.880;8.648;2022-09-20T09:22:23;9.40;;;3.95;;
29240;SDS011;16268;49.880;8.648;2022-09-20T09:25:17;10.70;;;3.63;;
29240;SDS011;16268;49.880;8.648;2022-09-20T09:30:44;7.75;;;2.85;;
29240;SDS011;16268;49.880;8.648;2022-09-20T09:36:05;5.97;;;2.20;;
29240;SDS011;16268;49.880;8.648;2022-09-20T09:38:38;7.70;;;2.42;;
29240;SDS011;16268;49.880;8.648;2022-09-20T09:41:09;7.45;;;2.17;;
29240;SDS011;16268;49.880;8.648;2022-09-20T09:44:18;6.30;;;2.22;;
29240;SDS011;16268;49.880;8.648;2022-09-20T09:46:45;7.38;;;2.20;;
29240;SDS011;16268;49.880;8.648;2022-09-20T09:49:15;10.25;;;2.65;;
29240;SDS011;16268;49.880;8.648;2022-09-20T10:00:19;7.35;;;3.10;;
29240;SDS011;16268;49.880;8.648;2022-09-20T10:08:46;7.40;;;1.98;;
29240;SDS011;16268;49.880;8.648;2022-09-20T10:13:52;5.47;;;2.40;;
29240;SDS011;16268;49.880;8.648;2022-09-20T10:16:57;7.50;;;2.05;;
29240;SDS011;16268;49.880;8.648;2022-09-20T10:22:17;7.72;;;2.47;;
29240;SDS011;16268;49.880;8.648;2022-09-20T10:25:02;7.15;;;1.70;;
29240;SDS011;16268;49.880;8.648;2022-09-20T10:30:09;8.05;;;2.15;;
29240;SDS011;16268;49.880;8.648;2022-09-20T10:32:51;5.32;;;1.92;;
29240;SDS011;16268;49.880;8.648;2022-09-20T10:38:22;7.35;;;1.70;;
29240;SDS011;16268;49.880;8.648;2022-09-20T10:43:56;6.90;;;1.67;;
29240;SDS011;16268;49.880;8.648;2022-09-20T10:52:12;5.22;;;1.75;;
29240;SDS011;16268;49.880;8.648;2022-09-20T11:03:18;4.50;;;1.30;;
29240;SDS011;16268;49.880;8.648;2022-09-20T11:08:41;6.88;;;1.90;;
29240;SDS011;16268;49.880;8.648;2022-09-20T11:11:14;5.60;;;1.88;;
29240;SDS011;16268;49.880;8.648;2022-09-20T11:13:44;7.53;;;2.25;;
29240;SDS011;16268;49.880;8.648;2022-09-20T11:16:13;7.63;;;2.20;;
29240;SDS011;16268;49.880;8.648;2022-09-20T11:18:45;5.85;;;1.98;;
29240;SDS011;16268;49.880;8.648;2022-09-20T11:21:20;5.07;;;2.00;;
29240;SDS011;16268;49.880;8.648;2022-09-20T11:26:37;6.63;;;2.05;;
29240;SDS011;16268;49.880;8.648;2022-09-20T11:29:33;6.85;;;2.00;;
29240;SDS011;16268;49.880;8.648;2022-09-20T11:32:19;8.52;;;2.20;;
29240;SDS011;16268;49.880;8.648;2022-09-20T11:34:55;4.25;;;1.73;;
29240;SDS011;16268;49.880;8.648;2022-09-20T11:37:29;5.90;;;1.67;;
29240;SDS011;16268;49.880;8.648;2022-09-20T11:42:50;8.70;;;2.35;;
29240;SDS011;16268;49.880;8.648;2022-09-20T11:45:17;5.15;;;1.90;;
29240;SDS011;16268;49.880;8.648;2022-09-20T11:47:46;4.90;;;1.95;;
29240;SDS011;16268;49.880;8.648;2022-09-20T11:56:30;6.25;;;1.70;;
29240;SDS011;16268;49.880;8.648;2022-09-20T11:58:59;6.40;;;1.88;;
29240;SDS011;16268;49.880;8.648;2022-09-20T12:01:30;4.57;;;1.60;;
29240;SDS011;16268;49.880;8.648;2022-09-20T12:04:02;5.32;;;1.73;;
29240;SDS011;16268;49.880;8.648;2022-09-20T12:06:35;3.92;;;1.60;;
29240;SDS011;16268;49.880;8.648;2022-09-20T12:09:45;5.22;;;1.63;;
29240;SDS011;16268;49.880;8.648;2022-09-20T12:11:59;4.30;;;1.40;;
29240;SDS011;16268;49.880;8.648;2022-09-20T12:14:56;3.67;;;1.60;;
29240;SDS011;16268;49.880;8.648;2022-09-20T12:26:08;7.20;;;2.35;;
29240;SDS011;16268;49.880;8.648;2022-09-20T12:44:29;4.10;;;1.60;;
29240;SDS011;16268;49.880;8.648;2022-09-20T12:52:30;4.95;;;1.90;;
29240;SDS011;16268;49.880;8.648;2022-09-20T13:00:46;5.75;;;1.50;;
29240;SDS011;16268;49.880;8.648;2022-09-20T13:13:28;4.00;;;1.40;;
29240;SDS011;16268;49.880;8.648;2022-09-20T13:15:57;9.38;;;1.40;;
29240;SDS011;16268;49.880;8.648;2022-09-20T13:18:25;9.93;;;4.60;;
29240;SDS011;16268;49.880;8.648;2022-09-20T13:20:53;4.65;;;1.42;;
29240;SDS011;16268;49.880;8.648;2022-09-20T13:23:22;5.85;;;2.00;;
29240;SDS011;16268;49.880;8.648;2022-09-20T13:25:51;4.80;;;1.30;;
29240;SDS011;16268;49.880;8.648;2022-09-20T13:31:31;8.27;;;1.95;;
29240;SDS011;16268;49.880;8.648;2022-09-20T13:36:47;5.80;;;2.13;;
29240;SDS011;16268;49.880;8.648;2022-09-20T13:39:22;5.93;;;1.38;;
29240;SDS011;16268;49.880;8.648;2022-09-20T13:41:52;9.75;;;2.08;;
29240;SDS011;16268;49.880;8.648;2022-09-20T13:44:17;4.97;;;2.13;;
29240;SDS011;16268;49.880;8.648;2022-09-20T13:46:44;6.22;;;2.22;;
29240;SDS011;16268;49.880;8.648;2022-09-20T13:49:16;7.03;;;2.53;;
29240;SDS011;16268;49.880;8.648;2022-09-20T13:51:48;7.13;;;2.20;;
29240;SDS011;16268;49.880;8.648;2022-09-20T13:54:18;9.50;;;2.55;;
29240;SDS011;16268;49.880;8.648;2022-09-20T13:56:45;7.65;;;2.00;;
29240;SDS011;16268;49.880;8.648;2022-09-20T13:59:11;7.00;;;2.80;;
29240;SDS011;16268;49.880;8.648;2022-09-20T14:01:48;6.78;;;2.50;;
29240;SDS011;16268;49.880;8.648;2022-09-20T14:04:16;5.95;;;2.67;;
29240;SDS011;16268;49.880;8.648;2022-09-20T14:06:45;8.45;;;2.67;;
29240;SDS011;16268;49.880;8.648;2022-09-20T14:09:31;6.55;;;2.20;;
29240;SDS011;16268;49.880;8.648;2022-09-20T14:11:59;7.53;;;2.40;;
29240;SDS011;16268;49.880;8.648;2022-09-20T14:14:27;7.97;;;3.13;;
29240;SDS011;16268;49.880;8.648;2022-09-20T14:16:53;5.40;;;2.28;;
29240;SDS011;16268;49.880;8.648;2022-09-20T14:19:22;7.13;;;2.65;;
29240;SDS011;16268;49.880;8.648;2022-09-20T14:21:54;6.50;;;2.60;;
29240;SDS011;16268;49.880;8.648;2022-09-20T14:24:24;5.72;;;2.38;;
29240;SDS011;16268;49.880;8.648;2022-09-20T14:27:01;7.32;;;2.72;;
29240;SDS011;16268;49.880;8.648;2022-09-20T14:34:38;8.73;;;2.78;;
29240;SDS011;16268;49.880;8.648;2022-09-20T14:37:12;7.65;;;2.25;;
29240;SDS011;16268;49.880;8.648;2022-09-20T14:39:52;7.53;;;2.20;;
29240;SDS011;16268;49.880;8.648;2022-09-20T14:42:41;5.57;;;2.28;;
29240;SDS011;16268;49.880;8.648;2022-09-20T14:45:23;6.50;;;2.28;;
29240;SDS011;16268;49.880;8.648;2022-09-20T14:50:38;7.43;;;2.83;;
29240;SDS011;16268;49.880;8.648;2022-09-20T14:55:38;5.57;;;1.90;;
29240;SDS011;16268;49.880;8.648;2022-09-20T14:58:08;7.03;;;2.43;;
29240;SDS011;16268;49.880;8.648;2022-09-20T15:01:36;6.82;;;2.88;;
29240;SDS011;16268;49.880;8.648;2022-09-20T15:03:49;6.72;;;2.10;;
29240;SDS011;16268;49.880;8.648;2022-09-20T15:06:16;5.90;;;1.88;;
29240;SDS011;16268;49.880;8.648;2022-09-20T15:08:42;6.53;;;1.80;;
29240;SDS011;16268;49.880;8.648;2022-09-20T15:11:14;6.22;;;1.77;;
29240;SDS011;16268;49.880;8.648;2022-09-20T15:13:43;3.90;;;1.88;;
29240;SDS011;16268;49.880;8.648;2022-09-20T15:16:09;7.05;;;2.15;;
29240;SDS011;16268;49.880;8.648;2022-09-20T15:18:41;5.22;;;2.28;;
29240;SDS011;16268;49.880;8.648;2022-09-20T15:21:07;5.63;;;1.80;;
29240;SDS011;16268;49.880;8.648;2022-09-20T15:23:35;4.50;;;1.73;;
29240;SDS011;16268;49.880;8.648;2022-09-20T15:26:01;4.50;;;1.95;;
29240;SDS011;16268;49.880;8.648;2022-09-20T15:28:27;7.68;;;2.55;;
29240;SDS011;16268;49.880;8.648;2022-09-20T15:30:53;5.25;;;2.30;;
29240;SDS011;16268;49.880;8.648;2022-09-20T15:33:19;11.18;;;4.63;;
29240;SDS011;16268;49.880;8.648;2022-09-20T15:35:45;6.75;;;2.10;;
29240;SDS011;16268;49.880;8.648;2022-09-20T15:38:12;4.38;;;1.42;;
29240;SDS011;16268;49.880;8.648;2022-09-20T15:40:46;6.55;;;1.50;;
29240;SDS011;16268;49.880;8.648;2022-09-20T15:43:14;4.63;;;1.27;;
29240;SDS011;16268;49.880;8.648;2022-09-20T15:45:49;2.58;;;1.00;;
29240;SDS011;16268;49.880;8.648;2022-09-20T15:48:17;3.65;;;1.10;;
29240;SDS011;16268;49.880;8.648;2022-09-20T15:53:26;4.43;;;1.13;;
29240;SDS011;16268;49.880;8.648;2022-09-20T15:55:56;3.60;;;1.58;;
29240;SDS011;16268;49.880;8.648;2022-09-20T15:58:26;3.15;;;1.13;;
29240;SDS011;16268;49.880;8.648;2022-09-20T16:00:52;5.05;;;2.10;;
29240;SDS011;16268;49.880;8.648;2022-09-20T16:03:18;6.95;;;2.20;;
29240;SDS011;16268;49.880;8.648;2022-09-20T16:05:43;5.63;;;2.00;;
29240;SDS011;16268;49.880;8.648;2022-09-20T16:08:09;3.75;;;1.20;;
29240;SDS011;16268;49.880;8.648;2022-09-20T16:10:34;5.05;;;1.30;;
29240;SDS011;16268;49.880;8.648;2022-09-20T16:13:02;4.10;;;1.85;;
29240;SDS011;16268;49.880;8.648;2022-09-20T16:17:55;2.83;;;0.90;;
29240;SDS011;16268;49.880;8.648;2022-09-20T16:20:40;4.05;;;1.40;;
29240;SDS011;16268;49.880;8.648;2022-09-20T16:23:05;6.55;;;1.27;;
29240;SDS011;16268;49.880;8.648;2022-09-20T16:25:31;3.28;;;1.30;;
29240;SDS011;16268;49.880;8.648;2022-09-20T16:27:56;2.63;;;0.90;;
29240;SDS011;16268;49.880;8.648;2022-09-20T16:30:22;2.85;;;0.80;;
29240;SDS011;16268;49.880;8.648;2022-09-20T16:32:48;4.60;;;1.15;;
29240;SDS011;16268;49.880;8.648;2022-09-20T16:35:14;5.10;;;1.45;;
29240;SDS011;16268;49.880;8.648;2022-09-20T16:37:40;3.10;;;1.20;;
29240;SDS011;16268;49.880;8.648;2022-09-20T16:40:06;3.83;;;1.50;;
29240;SDS011;16268;49.880;8.648;2022-09-20T16:42:34;2.55;;;0.90;;
29240;SDS011;16268;49.880;8.648;2022-09-20T16:45:01;3.78;;;1.00;;
29240;SDS011;16268;49.880;8.648;2022-09-20T16:47:27;3.60;;;0.68;;
29240;SDS011;16268;49.880;8.648;2022-09-20T16:49:53;3.67;;;1.05;;
29240;SDS011;16268;49.880;8.648;2022-09-20T16:52:20;3.47;;;1.10;;
29240;SDS011;16268;49.880;8.648;2022-09-20T16:54:46;4.22;;;1.05;;
29240;SDS011;16268;49.880;8.648;2022-09-20T16:57:11;5.72;;;1.40;;
29240;SDS011;16268;49.880;8.648;2022-09-20T16:59:39;8.30;;;3.40;;
29240;SDS011;16268;49.880;8.648;2022-09-20T17:02:05;6.45;;;2.92;;
29240;SDS011;16268;49.880;8.648;2022-09-20T17:04:30;4.75;;;1.73;;
29240;SDS011;16268;49.880;8.648;2022-09-20T17:06:56;4.80;;;1.40;;
29240;SDS011;16268;49.880;8.648;2022-09-20T17:09:21;5.07;;;1.48;;
29240;SDS011;16268;49.880;8.648;2022-09-20T17:11:48;2.88;;;1.38;;
29240;SDS011;16268;49.880;8.648;2022-09-20T17:14:15;5.03;;;1.60;;
29240;SDS011;16268;49.880;8.648;2022-09-20T17:16:43;3.22;;;1.38;;
29240;SDS011;16268;49.880;8.648;2022-09-20T17:19:14;5.90;;;1.85;;
29240;SDS011;16268;49.880;8.648;2022-09-20T17:21:42;3.65;;;1.58;;
29240;SDS011;16268;49.880;8.648;2022-09-20T17:24:13;5.93;;;1.80;;
29240;SDS011;16268;49.880;8.648;2022-09-20T17:26:39;4.20;;;1.50;;
29240;SDS011;16268;49.880;8.648;2022-09-20T17:29:08;4.88;;;1.50;;
29240;SDS011;16268;49.880;8.648;2022-09-20T17:31:37;5.35;;;1.20;;
29240;SDS011;16268;49.880;8.648;2022-09-20T17:34:06;3.33;;;1.00;;
29240;SDS011;16268;49.880;8.648;2022-09-20T17:36:35;3.67;;;1.38;;
29240;SDS011;16268;49.880;8.648;2022-09-20T17:39:03;3.45;;;1.40;;
29240;SDS011;16268;49.880;8.648;2022-09-20T17:41:30;5.70;;;1.83;;
29240;SDS011;16268;49.880;8.648;2022-09-20T17:43:57;5.90;;;2.60;;
29240;SDS011;16268;49.880;8.648;2022-09-20T17:46:24;6.63;;;2.28;;
29240;SDS011;16268;49.880;8.648;2022-09-20T17:51:21;5.03;;;1.60;;
29240;SDS011;16268;49.880;8.648;2022-09-20T17:53:49;4.80;;;1.30;;
29240;SDS011;16268;49.880;8.648;2022-09-20T17:56:15;3.17;;;1.23;;
29240;SDS011;16268;49.880;8.648;2022-09-20T17:58:41;5.03;;;1.60;;
29240;SDS011;16268;49.880;8.648;2022-09-20T18:01:09;3.75;;;1.30;;
29240;SDS011;16268;49.880;8.648;2022-09-20T18:03:38;6.38;;;1.38;;
29240;SDS011;16268;49.880;8.648;2022-09-20T18:06:09;5.15;;;1.77;;
29240;SDS011;16268;49.880;8.648;2022-09-20T18:08:46;6.70;;;2.47;;
29240;SDS011;16268;49.880;8.648;2022-09-20T18:11:13;6.75;;;1.80;;
29240;SDS011;16268;49.880;8.648;2022-09-20T18:13:40;4.35;;;1.45;;
29240;SDS011;16268;49.880;8.648;2022-09-20T18:16:13;4.93;;;1.83;;
29240;SDS011;16268;49.880;8.648;2022-09-20T18:18:40;3.85;;;1.45;;
29240;SDS011;16268;49.880;8.648;2022-09-20T18:21:08;6.22;;;1.65;;
29240;SDS011;16268;49.880;8.648;2022-09-20T18:23:38;4.32;;;1.60;;
29240;SDS011;16268;49.880;8.648;2022-09-20T18:26:05;4.28;;;1.60;;
29240;SDS011;16268;49.880;8.648;2022-09-20T18:31:19;6.05;;;1.70;;
29240;SDS011;16268;49.880;8.648;2022-09-20T18:33:45;3.55;;;1.45;;
29240;SDS011;16268;49.880;8.648;2022-09-20T18:36:11;5.70;;;1.85;;
29240;SDS011;16268;49.880;8.648;2022-09-20T18:38:37;5.75;;;2.30;;
29240;SDS011;16268;49.880;8.648;2022-09-20T18:41:03;5.05;;;2.10;;
29240;SDS011;16268;49.880;8.648;2022-09-20T18:43:29;4.60;;;1.80;;
29240;SDS011;16268;49.880;8.648;2022-09-20T18:45:56;6.00;;;1.95;;
29240;SDS011;16268;49.880;8.648;2022-09-20T18:48:22;7.05;;;1.95;;
29240;SDS011;16268;49.880;8.648;2022-09-20T18:50:56;6.70;;;1.95;;
29240;SDS011;16268;49.880;8.648;2022-09-20T18:53:26;7.10;;;2.15;;
29240;SDS011;16268;49.880;8.648;2022-09-20T18:56:03;8.43;;;1.98;;
29240;SDS011;16268;49.880;8.648;2022-09-20T18:58:34;4.28;;;1.83;;
29240;SDS011;16268;49.880;8.648;2022-09-20T19:06:51;5.00;;;1.65;;
29240;SDS011;16268;49.880;8.648;2022-09-20T19:09:35;4.75;;;1.50;;
29240;SDS011;16268;49.880;8.648;2022-09-20T19:12:04;7.30;;;1.70;;
29240;SDS011;16268;49.880;8.648;2022-09-20T19:17:11;5.07;;;1.75;;
29240;SDS011;16268;49.880;8.648;2022-09-20T19:19:48;6.15;;;1.90;;
29240;SDS011;16268;49.880;8.648;2022-09-20T19:25:24;6.03;;;1.77;;
29240;SDS011;16268;49.880;8.648;2022-09-20T19:28:01;6.25;;;1.60;;
29240;SDS011;16268;49.880;8.648;2022-09-20T19:30:27;6.20;;;1.88;;
29240;SDS011;16268;49.880;8.648;2022-09-20T19:32:53;6.63;;;1.77;;
29240;SDS011;16268;49.880;8.648;2022-09-20T19:35:25;5.63;;;1.90;;
29240;SDS011;16268;49.880;8.648;2022-09-20T19:41:18;5.90;;;1.65;;
29240;SDS011;16268;49.880;8.648;2022-09-20T19:44:16;4.97;;;1.40;;
29240;SDS011;16268;49.880;8.648;2022-09-20T19:49:39;5.35;;;2.15;;
29240;SDS011;16268;49.880;8.648;2022-09-20T19:52:13;5.00;;;1.77;;
29240;SDS011;16268;49.880;8.648;2022-09-20T19:54:39;5.60;;;1.60;;
29240;SDS011;16268;49.880;8.648;2022-09-20T19:57:08;4.32;;;1.70;;
29240;SDS011;16268;49.880;8.648;2022-09-20T19:59:48;8.23;;;3.50;;
29240;SDS011;16268;49.880;8.648;2022-09-20T20:02:15;6.28;;;2.10;;
29240;SDS011;16268;49.880;8.648;2022-09-20T20:04:41;6.45;;;1.83;;
29240;SDS011;16268;49.880;8.648;2022-09-20T20:12:23;4.53;;;1.95;;
29240;SDS011;16268;49.880;8.648;2022-09-20T20:23:36;5.40;;;2.30;;
29240;SDS011;16268;49.880;8.648;2022-09-20T20:26:23;5.65;;;2.40;;
29240;SDS011;16268;49.880;8.648;2022-09-20T20:28:49;6.13;;;2.05;;
29240;SDS011;16268;49.880;8.648;2022-09-20T20:31:17;5.10;;;2.40;;
29240;SDS011;16268;49.880;8.648;2022-09-20T20:33:43;4.50;;;2.10;;
29240;SDS011;16268;49.880;8.648;2022-09-20T20:36:09;7.43;;;2.20;;
29240;SDS011;16268;49.880;8.648;2022-09-20T20:38:38;7.05;;;2.67;;
29240;SDS011;16268;49.880;8.648;2022-09-20T20:41:06;5.13;;;2.20;;
29240;SDS011;16268;49.880;8.648;2022-09-20T20:43:38;7.57;;;2.50;;
29240;SDS011;16268;49.880;8.648;2022-09-20T20:46:06;6.35;;;2.22;;
29240;SDS011;16268;49.880;8.648;2022-09-20T20:48:36;6.40;;;2.22;;
29240;SDS011;16268;49.880;8.648;2022-09-20T20:51:03;6.10;;;2.55;;
29240;SDS011;16268;49.880;8.648;2022-09-20T20:53:32;6.45;;;2.60;;
29240;SDS011;16268;49.880;8.648;2022-09-20T20:56:09;6.00;;;2.25;;
29240;SDS011;16268;49.880;8.648;2022-09-20T20:58:38;6.13;;;1.80;;
29240;SDS011;16268;49.880;8.648;2022-09-20T21:03:33;5.70;;;2.22;;